sensor_id;sensor_type;location;lat;lon;timestamp;P1;durP1;ratioP1;P2;durP2;ratioP2
33074;SDS011;19433;51.292;6.868;2022-11-20T00:02:18;12.30;;;11.10;;
33074;SDS011;19433;51.292;6.868;2022-11-20T00:04:44;13.30;;;11.37;;
33074;SDS011;19433;51.292;6.868;2022-11-20T00:07:09;13.00;;;11.70;;
33074;SDS011;19433;51.292;6.868;2022-11-20T00:09:34;12.03;;;10.87;;
33074;SDS011;19433;51.292;6.868;2022-11-20T00:12:00;11.80;;;10.53;;
33074;SDS011;19433;51.292;6.868;2022-11-20T00:14:25;12.70;;;11.40;;
33074;SDS011;19433;51.292;6.868;2022-11-20T00:27:48;12.37;;;11.07;;
33074;SDS011;19433;51.292;6.868;2022-11-20T00:30:13;12.60;;;10.50;;
33074;SDS011;19433;51.292;6.868;2022-11-20T00:32:39;15.80;;;11.50;;
33074;SDS011;19433;51.292;6.868;2022-11-20T00:35:04;13.00;;;11.60;;
33074;SDS011;19433;51.292;6.868;2022-11-20T00:37:31;13.57;;;11.37;;
33074;SDS011;19433;51.292;6.868;2022-11-20T00:40:06;13.00;;;11.10;;
33074;SDS011;19433;51.292;6.868;2022-11-20T00:42:32;13.17;;;11.43;;
33074;SDS011;19433;51.292;6.868;2022-11-20T00:44:57;16.73;;;12.60;;
33074;SDS011;19433;51.292;6.868;2022-11-20T00:47:23;13.37;;;11.83;;
33074;SDS011;19433;51.292;6.868;2022-11-20T00:49:48;11.60;;;10.40;;
33074;SDS011;19433;51.292;6.868;2022-11-20T00:52:13;13.70;;;12.07;;
33074;SDS011;19433;51.292;6.868;2022-11-20T00:54:41;12.90;;;10.97;;
33074;SDS011;19433;51.292;6.868;2022-11-20T01:03:27;13.33;;;12.03;;
33074;SDS011;19433;51.292;6.868;2022-11-20T01:05:59;14.17;;;12.30;;
33074;SDS011;19433;51.292;6.868;2022-11-20T01:08:29;13.20;;;12.00;;
33074;SDS011;19433;51.292;6.868;2022-11-20T01:11:04;13.87;;;12.47;;
33074;SDS011;19433;51.292;6.868;2022-11-20T01:13:34;13.83;;;11.30;;
33074;SDS011;19433;51.292;6.868;2022-11-20T01:18:38;13.30;;;11.50;;
33074;SDS011;19433;51.292;6.868;2022-11-20T01:21:07;14.13;;;12.60;;
33074;SDS011;19433;51.292;6.868;2022-11-20T01:23:35;13.70;;;12.23;;
33074;SDS011;19433;51.292;6.868;2022-11-20T01:26:10;12.23;;;11.03;;
33074;SDS011;19433;51.292;6.868;2022-11-20T01:31:58;12.97;;;10.67;;
33074;SDS011;19433;51.292;6.868;2022-11-20T01:37:14;12.50;;;10.97;;
33074;SDS011;19433;51.292;6.868;2022-11-20T01:39:39;13.33;;;10.40;;
33074;SDS011;19433;51.292;6.868;2022-11-20T01:42:04;13.53;;;11.87;;
33074;SDS011;19433;51.292;6.868;2022-11-20T01:48:16;14.10;;;12.37;;
33074;SDS011;19433;51.292;6.868;2022-11-20T01:50:43;13.57;;;11.87;;
33074;SDS011;19433;51.292;6.868;2022-11-20T01:53:10;18.20;;;11.90;;
33074;SDS011;19433;51.292;6.868;2022-11-20T01:55:49;13.97;;;11.77;;
33074;SDS011;19433;51.292;6.868;2022-11-20T02:01:25;12.50;;;11.00;;
33074;SDS011;19433;51.292;6.868;2022-11-20T02:03:51;11.97;;;10.70;;
33074;SDS011;19433;51.292;6.868;2022-11-20T02:13:07;15.40;;;11.80;;
33074;SDS011;19433;51.292;6.868;2022-11-20T02:19:14;14.57;;;13.00;;
33074;SDS011;19433;51.292;6.868;2022-11-20T02:24:30;15.83;;;11.70;;
33074;SDS011;19433;51.292;6.868;2022-11-20T02:26:57;14.93;;;11.20;;
33074;SDS011;19433;51.292;6.868;2022-11-20T02:29:28;14.40;;;12.40;;
33074;SDS011;19433;51.292;6.868;2022-11-20T02:31:58;14.23;;;12.63;;
33074;SDS011;19433;51.292;6.868;2022-11-20T02:34:26;15.10;;;12.50;;
33074;SDS011;19433;51.292;6.868;2022-11-20T02:36:52;14.30;;;12.83;;
33074;SDS011;19433;51.292;6.868;2022-11-20T02:39:18;14.70;;;12.97;;
33074;SDS011;19433;51.292;6.868;2022-11-20T02:41:45;14.37;;;12.53;;
33074;SDS011;19433;51.292;6.868;2022-11-20T02:47:33;14.73;;;13.23;;
33074;SDS011;19433;51.292;6.868;2022-11-20T02:49:58;19.57;;;14.33;;
33074;SDS011;19433;51.292;6.868;2022-11-20T02:52:24;16.40;;;13.47;;
33074;SDS011;19433;51.292;6.868;2022-11-20T02:54:50;17.30;;;15.10;;
33074;SDS011;19433;51.292;6.868;2022-11-20T02:57:15;15.93;;;13.60;;
33074;SDS011;19433;51.292;6.868;2022-11-20T02:59:41;16.57;;;13.80;;
33074;SDS011;19433;51.292;6.868;2022-11-20T03:05:12;18.40;;;14.77;;
33074;SDS011;19433;51.292;6.868;2022-11-20T03:07:37;15.00;;;13.23;;
33074;SDS011;19433;51.292;6.868;2022-11-20T03:16:16;19.33;;;14.50;;
33074;SDS011;19433;51.292;6.868;2022-11-20T03:22:07;17.00;;;14.00;;
33074;SDS011;19433;51.292;6.868;2022-11-20T03:27:57;16.53;;;14.07;;
33074;SDS011;19433;51.292;6.868;2022-11-20T03:33:46;20.30;;;14.20;;
33074;SDS011;19433;51.292;6.868;2022-11-20T03:39:35;17.47;;;14.57;;
33074;SDS011;19433;51.292;6.868;2022-11-20T03:51:06;17.70;;;14.67;;
33074;SDS011;19433;51.292;6.868;2022-11-20T03:53:36;19.47;;;16.47;;
33074;SDS011;19433;51.292;6.868;2022-11-20T03:59:23;19.50;;;14.40;;
33074;SDS011;19433;51.292;6.868;2022-11-20T04:11:31;17.90;;;14.27;;
33074;SDS011;19433;51.292;6.868;2022-11-20T07:05:20;16.30;;;14.60;;
33074;SDS011;19433;51.292;6.868;2022-11-20T07:07:45;17.53;;;15.73;;
33074;SDS011;19433;51.292;6.868;2022-11-20T07:10:11;16.60;;;14.90;;
33074;SDS011;19433;51.292;6.868;2022-11-20T07:12:36;20.30;;;17.73;;
33074;SDS011;19433;51.292;6.868;2022-11-20T07:15:02;20.50;;;16.83;;
33074;SDS011;19433;51.292;6.868;2022-11-20T07:17:27;16.23;;;14.53;;
33074;SDS011;19433;51.292;6.868;2022-11-20T07:19:52;15.87;;;14.20;;
33074;SDS011;19433;51.292;6.868;2022-11-20T07:22:18;18.97;;;13.63;;
33074;SDS011;19433;51.292;6.868;2022-11-20T07:28:14;18.47;;;15.00;;
33074;SDS011;19433;51.292;6.868;2022-11-20T07:34:01;16.80;;;15.03;;
33074;SDS011;19433;51.292;6.868;2022-11-20T07:36:26;16.90;;;15.10;;
33074;SDS011;19433;51.292;6.868;2022-11-20T07:38:51;17.87;;;14.80;;
33074;SDS011;19433;51.292;6.868;2022-11-20T07:41:17;15.50;;;13.80;;
33074;SDS011;19433;51.292;6.868;2022-11-20T07:43:42;21.40;;;16.03;;
33074;SDS011;19433;51.292;6.868;2022-11-20T07:46:07;21.17;;;16.00;;
33074;SDS011;19433;51.292;6.868;2022-11-20T07:48:32;23.03;;;19.37;;
33074;SDS011;19433;51.292;6.868;2022-11-20T07:50:58;20.03;;;16.60;;
33074;SDS011;19433;51.292;6.868;2022-11-20T07:53:23;15.37;;;12.77;;
33074;SDS011;19433;51.292;6.868;2022-11-20T07:55:49;16.90;;;14.90;;
33074;SDS011;19433;51.292;6.868;2022-11-20T07:58:20;19.30;;;15.60;;
33074;SDS011;19433;51.292;6.868;2022-11-20T08:00:45;18.10;;;15.87;;
33074;SDS011;19433;51.292;6.868;2022-11-20T08:03:11;17.27;;;15.47;;
33074;SDS011;19433;51.292;6.868;2022-11-20T08:05:37;19.23;;;15.13;;
33074;SDS011;19433;51.292;6.868;2022-11-20T08:10:56;15.50;;;13.33;;
33074;SDS011;19433;51.292;6.868;2022-11-20T08:13:42;17.07;;;14.10;;
33074;SDS011;19433;51.292;6.868;2022-11-20T08:47:12;15.70;;;12.77;;
33074;SDS011;19433;51.292;6.868;2022-11-20T08:52:25;13.60;;;12.20;;
33074;SDS011;19433;51.292;6.868;2022-11-20T08:54:50;12.97;;;11.70;;
33074;SDS011;19433;51.292;6.868;2022-11-20T08:57:16;13.30;;;11.90;;
33074;SDS011;19433;51.292;6.868;2022-11-20T09:03:03;13.10;;;11.80;;
33074;SDS011;19433;51.292;6.868;2022-11-20T09:08:52;14.63;;;12.27;;
33074;SDS011;19433;51.292;6.868;2022-11-20T09:14:04;13.47;;;12.07;;
33074;SDS011;19433;51.292;6.868;2022-11-20T09:16:29;10.47;;;9.47;;
33074;SDS011;19433;51.292;6.868;2022-11-20T09:22:16;13.07;;;11.67;;
33074;SDS011;19433;51.292;6.868;2022-11-20T09:24:41;11.67;;;10.47;;
33074;SDS011;19433;51.292;6.868;2022-11-20T09:27:07;14.47;;;12.13;;
33074;SDS011;19433;51.292;6.868;2022-11-20T09:29:43;12.97;;;11.53;;
33074;SDS011;19433;51.292;6.868;2022-11-20T09:35:30;10.97;;;9.80;;
33074;SDS011;19433;51.292;6.868;2022-11-20T09:40:30;10.87;;;9.80;;
33074;SDS011;19433;51.292;6.868;2022-11-20T09:46:21;12.03;;;10.83;;
33074;SDS011;19433;51.292;6.868;2022-11-20T09:52:10;11.90;;;9.97;;
33074;SDS011;19433;51.292;6.868;2022-11-20T09:54:39;11.27;;;9.70;;
33074;SDS011;19433;51.292;6.868;2022-11-20T09:57:09;12.77;;;11.37;;
33074;SDS011;19433;51.292;6.868;2022-11-20T09:59:42;10.93;;;9.73;;
33074;SDS011;19433;51.292;6.868;2022-11-20T10:02:37;11.67;;;10.47;;
33074;SDS011;19433;51.292;6.868;2022-11-20T10:05:27;10.87;;;9.07;;
33074;SDS011;19433;51.292;6.868;2022-11-20T10:08:11;13.83;;;11.27;;
33074;SDS011;19433;51.292;6.868;2022-11-20T10:25:19;13.07;;;10.97;;
33074;SDS011;19433;51.292;6.868;2022-11-20T10:30:51;13.70;;;11.40;;
33074;SDS011;19433;51.292;6.868;2022-11-20T10:33:25;14.03;;;11.90;;
33074;SDS011;19433;51.292;6.868;2022-11-20T10:41:42;14.83;;;12.53;;
33074;SDS011;19433;51.292;6.868;2022-11-20T10:44:14;13.53;;;12.10;;
33074;SDS011;19433;51.292;6.868;2022-11-20T10:47:15;14.20;;;12.70;;
33074;SDS011;19433;51.292;6.868;2022-11-20T10:49:51;13.30;;;11.90;;
33074;SDS011;19433;51.292;6.868;2022-11-20T11:07:36;14.40;;;11.80;;
33074;SDS011;19433;51.292;6.868;2022-11-20T11:13:26;12.73;;;11.43;;
33074;SDS011;19433;51.292;6.868;2022-11-20T11:15:55;17.17;;;13.17;;
33074;SDS011;19433;51.292;6.868;2022-11-20T11:18:31;15.50;;;12.90;;
33074;SDS011;19433;51.292;6.868;2022-11-20T11:21:03;16.60;;;13.50;;
33074;SDS011;19433;51.292;6.868;2022-11-20T11:26:00;15.70;;;12.60;;
33074;SDS011;19433;51.292;6.868;2022-11-20T11:28:35;15.43;;;13.20;;
33074;SDS011;19433;51.292;6.868;2022-11-20T11:31:01;16.60;;;14.23;;
33074;SDS011;19433;51.292;6.868;2022-11-20T11:33:27;17.03;;;14.23;;
33074;SDS011;19433;51.292;6.868;2022-11-20T11:38:28;16.60;;;13.70;;
33074;SDS011;19433;51.292;6.868;2022-11-20T11:40:57;15.80;;;12.97;;
33074;SDS011;19433;51.292;6.868;2022-11-20T11:43:26;14.27;;;12.73;;
33074;SDS011;19433;51.292;6.868;2022-11-20T11:46:23;13.93;;;12.50;;
33074;SDS011;19433;51.292;6.868;2022-11-20T11:49:08;17.27;;;13.10;;
33074;SDS011;19433;51.292;6.868;2022-11-20T11:54:30;15.20;;;13.50;;
33074;SDS011;19433;51.292;6.868;2022-11-20T11:57:03;17.17;;;12.70;;
33074;SDS011;19433;51.292;6.868;2022-11-20T12:05:24;14.90;;;12.93;;
33074;SDS011;19433;51.292;6.868;2022-11-20T12:10:28;14.77;;;13.20;;
33074;SDS011;19433;51.292;6.868;2022-11-20T12:13:17;15.33;;;13.70;;
33074;SDS011;19433;51.292;6.868;2022-11-20T12:15:50;17.27;;;13.87;;
33074;SDS011;19433;51.292;6.868;2022-11-20T12:18:20;20.83;;;13.57;;
33074;SDS011;19433;51.292;6.868;2022-11-20T12:21:07;16.50;;;13.80;;
33074;SDS011;19433;51.292;6.868;2022-11-20T12:23:54;17.70;;;14.00;;
33074;SDS011;19433;51.292;6.868;2022-11-20T12:31:52;17.03;;;15.23;;
33074;SDS011;19433;51.292;6.868;2022-11-20T12:44:18;16.80;;;13.97;;
33074;SDS011;19433;51.292;6.868;2022-11-20T12:47:22;15.37;;;13.63;;
33074;SDS011;19433;51.292;6.868;2022-11-20T13:08:21;16.67;;;14.23;;
33074;SDS011;19433;51.292;6.868;2022-11-20T13:10:51;15.43;;;13.93;;
33074;SDS011;19433;51.292;6.868;2022-11-20T13:19:53;16.37;;;14.37;;
33074;SDS011;19433;51.292;6.868;2022-11-20T13:22:24;15.97;;;14.10;;
33074;SDS011;19433;51.292;6.868;2022-11-20T13:24:52;20.10;;;15.73;;
33074;SDS011;19433;51.292;6.868;2022-11-20T13:27:19;19.80;;;15.80;;
33074;SDS011;19433;51.292;6.868;2022-11-20T13:29:58;17.50;;;15.67;;
33074;SDS011;19433;51.292;6.868;2022-11-20T13:32:26;18.80;;;16.70;;
33074;SDS011;19433;51.292;6.868;2022-11-20T13:35:00;21.47;;;15.30;;
33074;SDS011;19433;51.292;6.868;2022-11-20T13:37:32;22.10;;;16.83;;
33074;SDS011;19433;51.292;6.868;2022-11-20T13:40:11;22.53;;;16.77;;
33074;SDS011;19433;51.292;6.868;2022-11-20T13:42:39;45.90;;;34.00;;
33074;SDS011;19433;51.292;6.868;2022-11-20T13:45:09;29.93;;;19.57;;
33074;SDS011;19433;51.292;6.868;2022-11-20T13:47:49;23.97;;;16.97;;
33074;SDS011;19433;51.292;6.868;2022-11-20T13:50:16;20.80;;;17.33;;
33074;SDS011;19433;51.292;6.868;2022-11-20T13:52:46;23.40;;;16.67;;
33074;SDS011;19433;51.292;6.868;2022-11-20T13:55:38;22.43;;;17.67;;
33074;SDS011;19433;51.292;6.868;2022-11-20T14:00:47;23.00;;;18.27;;
33074;SDS011;19433;51.292;6.868;2022-11-20T14:03:18;25.20;;;17.57;;
33074;SDS011;19433;51.292;6.868;2022-11-20T14:05:54;24.53;;;18.37;;
33074;SDS011;19433;51.292;6.868;2022-11-20T14:08:26;26.00;;;18.97;;
33074;SDS011;19433;51.292;6.868;2022-11-20T14:16:38;26.20;;;17.90;;
33074;SDS011;19433;51.292;6.868;2022-11-20T14:21:44;24.13;;;18.60;;
33074;SDS011;19433;51.292;6.868;2022-11-20T14:24:13;27.27;;;19.30;;
33074;SDS011;19433;51.292;6.868;2022-11-20T14:26:43;24.30;;;19.63;;
33074;SDS011;19433;51.292;6.868;2022-11-20T14:29:13;26.60;;;20.17;;
33074;SDS011;19433;51.292;6.868;2022-11-20T14:31:41;24.00;;;19.87;;
33074;SDS011;19433;51.292;6.868;2022-11-20T14:34:18;27.40;;;18.70;;
33074;SDS011;19433;51.292;6.868;2022-11-20T14:36:45;23.47;;;18.00;;
33074;SDS011;19433;51.292;6.868;2022-11-20T14:39:12;26.10;;;19.67;;
33074;SDS011;19433;51.292;6.868;2022-11-20T14:41:51;27.50;;;20.03;;
33074;SDS011;19433;51.292;6.868;2022-11-20T14:44:17;27.43;;;19.67;;
33074;SDS011;19433;51.292;6.868;2022-11-20T14:46:44;21.93;;;17.63;;
33074;SDS011;19433;51.292;6.868;2022-11-20T14:49:10;31.03;;;23.60;;
33074;SDS011;19433;51.292;6.868;2022-11-20T14:51:39;27.90;;;19.97;;
33074;SDS011;19433;51.292;6.868;2022-11-20T14:54:08;25.93;;;18.50;;
33074;SDS011;19433;51.292;6.868;2022-11-20T14:56:42;25.83;;;20.27;;
33074;SDS011;19433;51.292;6.868;2022-11-20T14:59:23;23.87;;;18.43;;
33074;SDS011;19433;51.292;6.868;2022-11-20T15:04:26;27.13;;;19.27;;
33074;SDS011;19433;51.292;6.868;2022-11-20T15:06:52;25.50;;;17.73;;
33074;SDS011;19433;51.292;6.868;2022-11-20T15:09:19;26.47;;;20.40;;
33074;SDS011;19433;51.292;6.868;2022-11-20T15:12:17;25.67;;;18.87;;
33074;SDS011;19433;51.292;6.868;2022-11-20T15:14:42;25.07;;;19.30;;
33074;SDS011;19433;51.292;6.868;2022-11-20T15:17:08;26.47;;;18.23;;
33074;SDS011;19433;51.292;6.868;2022-11-20T15:19:36;29.33;;;20.10;;
33074;SDS011;19433;51.292;6.868;2022-11-20T15:22:01;24.23;;;20.67;;
33074;SDS011;19433;51.292;6.868;2022-11-20T15:24:26;31.43;;;21.37;;
33074;SDS011;19433;51.292;6.868;2022-11-20T15:26:52;23.50;;;18.03;;
33074;SDS011;19433;51.292;6.868;2022-11-20T15:29:17;25.17;;;17.80;;
33074;SDS011;19433;51.292;6.868;2022-11-20T15:31:43;25.03;;;19.00;;
33074;SDS011;19433;51.292;6.868;2022-11-20T15:34:13;24.87;;;17.70;;
33074;SDS011;19433;51.292;6.868;2022-11-20T15:36:40;21.67;;;16.90;;
33074;SDS011;19433;51.292;6.868;2022-11-20T15:39:06;25.23;;;18.90;;
33074;SDS011;19433;51.292;6.868;2022-11-20T15:41:33;21.80;;;16.70;;
33074;SDS011;19433;51.292;6.868;2022-11-20T15:44:01;23.47;;;16.47;;
33074;SDS011;19433;51.292;6.868;2022-11-20T15:46:29;25.93;;;18.10;;
33074;SDS011;19433;51.292;6.868;2022-11-20T15:48:59;23.60;;;17.23;;
33074;SDS011;19433;51.292;6.868;2022-11-20T15:51:32;25.30;;;16.03;;
33074;SDS011;19433;51.292;6.868;2022-11-20T15:53:59;21.37;;;16.77;;
33074;SDS011;19433;51.292;6.868;2022-11-20T15:56:37;23.67;;;17.10;;
33074;SDS011;19433;51.292;6.868;2022-11-20T15:59:12;19.57;;;16.33;;
33074;SDS011;19433;51.292;6.868;2022-11-20T16:01:39;25.63;;;16.33;;
33074;SDS011;19433;51.292;6.868;2022-11-20T16:04:12;23.17;;;17.63;;
33074;SDS011;19433;51.292;6.868;2022-11-20T16:06:39;21.10;;;16.93;;
33074;SDS011;19433;51.292;6.868;2022-11-20T16:09:05;24.23;;;16.67;;
33074;SDS011;19433;51.292;6.868;2022-11-20T16:11:31;23.60;;;17.17;;
33074;SDS011;19433;51.292;6.868;2022-11-20T16:53:44;17.37;;;14.80;;
33074;SDS011;19433;51.292;6.868;2022-11-20T16:56:13;19.53;;;14.80;;
33074;SDS011;19433;51.292;6.868;2022-11-20T16:58:41;19.80;;;15.77;;
33074;SDS011;19433;51.292;6.868;2022-11-20T17:01:07;23.17;;;14.50;;
33074;SDS011;19433;51.292;6.868;2022-11-20T17:06:58;15.90;;;13.20;;
33074;SDS011;19433;51.292;6.868;2022-11-20T17:12:54;13.70;;;11.80;;
33074;SDS011;19433;51.292;6.868;2022-11-20T17:44:01;11.27;;;9.03;;
33074;SDS011;19433;51.292;6.868;2022-11-20T17:49:48;11.30;;;8.03;;
33074;SDS011;19433;51.292;6.868;2022-11-20T17:58:53;9.63;;;6.00;;
33074;SDS011;19433;51.292;6.868;2022-11-20T18:01:20;7.60;;;6.80;;
33074;SDS011;19433;51.292;6.868;2022-11-20T18:03:46;6.63;;;5.93;;
33074;SDS011;19433;51.292;6.868;2022-11-20T18:06:13;7.07;;;6.23;;
33074;SDS011;19433;51.292;6.868;2022-11-20T18:12:07;6.67;;;5.97;;
33074;SDS011;19433;51.292;6.868;2022-11-20T18:20:00;7.93;;;6.23;;
33074;SDS011;19433;51.292;6.868;2022-11-20T18:25:10;6.83;;;5.50;;
33074;SDS011;19433;51.292;6.868;2022-11-20T18:27:36;6.40;;;5.80;;
33074;SDS011;19433;51.292;6.868;2022-11-20T18:30:02;6.37;;;5.77;;
33074;SDS011;19433;51.292;6.868;2022-11-20T18:35:17;7.00;;;6.30;;
33074;SDS011;19433;51.292;6.868;2022-11-20T18:37:42;8.50;;;6.50;;
33074;SDS011;19433;51.292;6.868;2022-11-20T18:40:09;7.00;;;6.40;;
33074;SDS011;19433;51.292;6.868;2022-11-20T18:42:35;7.00;;;6.30;;
33074;SDS011;19433;51.292;6.868;2022-11-20T18:45:20;8.10;;;6.13;;
33074;SDS011;19433;51.292;6.868;2022-11-20T18:51:09;8.03;;;6.77;;
33074;SDS011;19433;51.292;6.868;2022-11-20T18:57:02;7.67;;;6.43;;
33074;SDS011;19433;51.292;6.868;2022-11-20T18:59:28;9.00;;;8.07;;
33074;SDS011;19433;51.292;6.868;2022-11-20T19:01:53;12.43;;;7.30;;
33074;SDS011;19433;51.292;6.868;2022-11-20T19:04:24;9.60;;;8.07;;
33074;SDS011;19433;51.292;6.868;2022-11-20T19:06:49;15.10;;;8.67;;
33074;SDS011;19433;51.292;6.868;2022-11-20T19:09:17;10.57;;;9.30;;
33074;SDS011;19433;51.292;6.868;2022-11-20T19:11:42;12.20;;;8.93;;
33074;SDS011;19433;51.292;6.868;2022-11-20T19:14:08;12.20;;;9.17;;
33074;SDS011;19433;51.292;6.868;2022-11-20T19:19:10;10.37;;;9.10;;
33074;SDS011;19433;51.292;6.868;2022-11-20T19:21:42;10.47;;;9.07;;
33074;SDS011;19433;51.292;6.868;2022-11-20T19:27:01;14.93;;;9.20;;
33074;SDS011;19433;51.292;6.868;2022-11-20T19:29:27;14.40;;;9.40;;
33074;SDS011;19433;51.292;6.868;2022-11-20T19:31:52;12.00;;;8.83;;
33074;SDS011;19433;51.292;6.868;2022-11-20T19:40:33;13.13;;;8.43;;
33074;SDS011;19433;51.292;6.868;2022-11-20T19:46:24;12.57;;;8.00;;
33074;SDS011;19433;51.292;6.868;2022-11-20T19:52:24;12.90;;;8.60;;
33074;SDS011;19433;51.292;6.868;2022-11-20T19:58:13;14.00;;;9.53;;
33074;SDS011;19433;51.292;6.868;2022-11-20T20:04:00;17.73;;;9.57;;
33074;SDS011;19433;51.292;6.868;2022-11-20T20:06:26;17.77;;;10.60;;
33074;SDS011;19433;51.292;6.868;2022-11-20T20:08:56;20.10;;;11.90;;
33074;SDS011;19433;51.292;6.868;2022-11-20T20:11:34;15.17;;;11.57;;
33074;SDS011;19433;51.292;6.868;2022-11-20T20:23:49;22.03;;;11.97;;
33074;SDS011;19433;51.292;6.868;2022-11-20T20:36:05;20.57;;;10.47;;
33074;SDS011;19433;51.292;6.868;2022-11-20T20:38:31;17.20;;;10.77;;
33074;SDS011;19433;51.292;6.868;2022-11-20T20:47:49;14.67;;;10.60;;
33074;SDS011;19433;51.292;6.868;2022-11-20T20:53:18;23.10;;;12.43;;
33074;SDS011;19433;51.292;6.868;2022-11-20T20:55:51;17.80;;;11.47;;
33074;SDS011;19433;51.292;6.868;2022-11-20T20:59:02;18.10;;;12.47;;
33074;SDS011;19433;51.292;6.868;2022-11-20T21:05:03;18.30;;;13.47;;
33074;SDS011;19433;51.292;6.868;2022-11-20T21:10:55;17.73;;;12.40;;
33074;SDS011;19433;51.292;6.868;2022-11-20T21:16:18;16.00;;;14.30;;
33074;SDS011;19433;51.292;6.868;2022-11-20T21:18:46;17.67;;;14.77;;
33074;SDS011;19433;51.292;6.868;2022-11-20T21:24:35;22.27;;;15.23;;
33074;SDS011;19433;51.292;6.868;2022-11-20T21:33:53;20.33;;;16.87;;
33074;SDS011;19433;51.292;6.868;2022-11-20T21:36:21;18.43;;;16.50;;
33074;SDS011;19433;51.292;6.868;2022-11-20T21:38:51;27.37;;;16.50;;
33074;SDS011;19433;51.292;6.868;2022-11-20T21:41:29;18.97;;;16.67;;
33074;SDS011;19433;51.292;6.868;2022-11-20T21:43:55;20.20;;;15.00;;
33074;SDS011;19433;51.292;6.868;2022-11-20T21:46:21;19.53;;;15.40;;
33074;SDS011;19433;51.292;6.868;2022-11-20T21:48:47;18.67;;;16.23;;
33074;SDS011;19433;51.292;6.868;2022-11-20T21:51:22;24.10;;;16.13;;
33074;SDS011;19433;51.292;6.868;2022-11-20T21:53:49;19.93;;;16.53;;
33074;SDS011;19433;51.292;6.868;2022-11-20T21:56:17;22.07;;;17.17;;
33074;SDS011;19433;51.292;6.868;2022-11-20T21:58:44;22.90;;;17.40;;
33074;SDS011;19433;51.292;6.868;2022-11-20T22:01:42;21.50;;;16.10;;
33074;SDS011;19433;51.292;6.868;2022-11-20T22:04:01;23.60;;;17.00;;
33074;SDS011;19433;51.292;6.868;2022-11-20T22:06:30;23.20;;;18.73;;
33074;SDS011;19433;51.292;6.868;2022-11-20T22:11:42;25.93;;;21.30;;
33074;SDS011;19433;51.292;6.868;2022-11-20T22:14:08;29.37;;;22.77;;
